Castaic, CA (91310)

11:06 AM PDT on September 03, 2015 (GMT -0700)
Amberwood Grove Ranch | | Change Station
CLOSE
Current Station
Personal Weather Station
Location: Santa Clarita, CA
Elevation: 1350 ft
Nearby Weather Stations

Elev 1350 ft 34.49 °N, 118.54 °W | Updated 6 minutes ago

Partly Cloudy
Partly Cloudy
70.9 °F
Feels Like 77 °F
N
8.1
Wind Variable Wind from SE
Gusts 8.1 mph

Today
High -- | Low -- °F
--% Chance of Precip.
Yesterday
High -- | Low -- °F
Precip. -- in
6:28 AM 7:18 PM
Waning Gibbous, 68% visible
Pressure 29.94 in
Visibility 10.0 miles
Clouds Overcast 2800 ft
Heat Index 77 °F
Dew Point 53 °F
Humidity 53%
Rainfall 0.00 in
Snow Depth Not available.
UV 2 out of 12
Pollen 7.80 out of 12
Air Quality Not available.
Flu Activity Not available.
SPECI KVNY 031758Z VRB06KT 10SM OVC028 22/13 A2994 RMK AO2 T02170133
Pressure 29.94 in
Visibility 10.0 miles
Clouds Overcast 2800 ft
Heat Index 77 °F
Dew Point 53 °F
Humidity 53%
Rainfall 0.00 in
Snow Depth Not available.
UV 2 out of 12
Pollen 7.80 out of 12
Air Quality Not available.
Flu Activity Not available.
SPECI KVNY 031758Z VRB06KT 10SM OVC028 22/13 A2994 RMK AO2 T02170133

10-Day Weather Forecast

×

Almanac

Astronomy

Sep. 03, 2015 Rise Set
Actual Time
Civil Twilight
Nautical Twilight
Astronomical Twilight
Moon
Length of Visible Light
Length of Day
Tomorrow will be .
, % of the Moon is Illuminated

Today's Extremes

State Highs State Lows

Community

WunderPhotos

Upload Photos

1,851,995 photos uploaded!

WunderBlogs® & News

Nearby

Air Quality

  Air Quality AQ Index Pollutant
Not available.

Snow Depth

Station Depth Elevation

Earthquake Activity

City Distance Mag. Time & Date
Minimum magnitude displayed is 2.5.

Coastal Water Temperatures

Place Temperature

Stations

Nearby Weather Stations

Station Location Temp. Windchill Dew Point Humidity Wind Precip. Elev Updated Type